sensor_id;sensor_type;location;lat;lon;timestamp;P1;durP1;ratioP1;P2;durP2;ratioP2
3070;SDS011;1546;47.208;9.038;2023-03-23T00:01:23;3.65;;;1.13;;
3070;SDS011;1546;47.208;9.038;2023-03-23T00:03:52;3.70;;;1.10;;
3070;SDS011;1546;47.208;9.038;2023-03-23T00:06:23;6.00;;;1.60;;
3070;SDS011;1546;47.208;9.038;2023-03-23T00:08:53;3.60;;;1.20;;
3070;SDS011;1546;47.208;9.038;2023-03-23T00:11:25;5.25;;;1.17;;
3070;SDS011;1546;47.208;9.038;2023-03-23T00:13:54;3.63;;;1.10;;
3070;SDS011;1546;47.208;9.038;2023-03-23T00:16:26;3.40;;;1.15;;
3070;SDS011;1546;47.208;9.038;2023-03-23T00:18:58;6.60;;;2.15;;
3070;SDS011;1546;47.208;9.038;2023-03-23T00:21:29;4.47;;;2.05;;
3070;SDS011;1546;47.208;9.038;2023-03-23T00:24:01;4.30;;;1.30;;
3070;SDS011;1546;47.208;9.038;2023-03-23T00:26:30;7.30;;;2.65;;
3070;SDS011;1546;47.208;9.038;2023-03-23T00:28:58;4.00;;;1.60;;
3070;SDS011;1546;47.208;9.038;2023-03-23T00:31:26;5.07;;;1.92;;
3070;SDS011;1546;47.208;9.038;2023-03-23T00:33:58;3.85;;;1.33;;
3070;SDS011;1546;47.208;9.038;2023-03-23T00:36:30;4.28;;;1.20;;
3070;SDS011;1546;47.208;9.038;2023-03-23T00:38:59;6.20;;;2.25;;
3070;SDS011;1546;47.208;9.038;2023-03-23T00:41:28;3.88;;;1.40;;
3070;SDS011;1546;47.208;9.038;2023-03-23T00:43:56;4.70;;;2.17;;
3070;SDS011;1546;47.208;9.038;2023-03-23T00:46:25;4.13;;;1.38;;
3070;SDS011;1546;47.208;9.038;2023-03-23T00:48:53;5.30;;;2.22;;
3070;SDS011;1546;47.208;9.038;2023-03-23T00:51:21;5.57;;;2.30;;
3070;SDS011;1546;47.208;9.038;2023-03-23T00:53:50;5.53;;;2.20;;
3070;SDS011;1546;47.208;9.038;2023-03-23T00:56:18;4.30;;;1.80;;
3070;SDS011;1546;47.208;9.038;2023-03-23T00:58:45;5.07;;;1.33;;
3070;SDS011;1546;47.208;9.038;2023-03-23T01:01:12;4.38;;;1.52;;
3070;SDS011;1546;47.208;9.038;2023-03-23T01:03:39;4.30;;;1.52;;
3070;SDS011;1546;47.208;9.038;2023-03-23T01:06:07;6.90;;;1.63;;
3070;SDS011;1546;47.208;9.038;2023-03-23T01:08:37;4.05;;;1.70;;
3070;SDS011;1546;47.208;9.038;2023-03-23T01:11:12;4.80;;;2.05;;
3070;SDS011;1546;47.208;9.038;2023-03-23T01:13:40;4.45;;;1.48;;
3070;SDS011;1546;47.208;9.038;2023-03-23T01:16:07;4.65;;;1.60;;
3070;SDS011;1546;47.208;9.038;2023-03-23T01:18:35;3.95;;;1.50;;
3070;SDS011;1546;47.208;9.038;2023-03-23T01:21:05;3.88;;;1.38;;
3070;SDS011;1546;47.208;9.038;2023-03-23T01:23:34;3.75;;;1.35;;
3070;SDS011;1546;47.208;9.038;2023-03-23T01:26:04;4.47;;;1.70;;
3070;SDS011;1546;47.208;9.038;2023-03-23T01:28:34;3.65;;;1.55;;
3070;SDS011;1546;47.208;9.038;2023-03-23T01:31:02;5.93;;;1.30;;
3070;SDS011;1546;47.208;9.038;2023-03-23T01:33:30;6.15;;;1.92;;
3070;SDS011;1546;47.208;9.038;2023-03-23T01:36:01;7.35;;;2.08;;
3070;SDS011;1546;47.208;9.038;2023-03-23T01:38:30;4.72;;;1.98;;
3070;SDS011;1546;47.208;9.038;2023-03-23T01:40:57;7.15;;;1.70;;
3070;SDS011;1546;47.208;9.038;2023-03-23T01:43:24;3.70;;;1.30;;
3070;SDS011;1546;47.208;9.038;2023-03-23T01:45:52;6.20;;;1.55;;
3070;SDS011;1546;47.208;9.038;2023-03-23T01:48:20;4.00;;;1.40;;
3070;SDS011;1546;47.208;9.038;2023-03-23T01:50:53;4.15;;;1.75;;
3070;SDS011;1546;47.208;9.038;2023-03-23T01:53:24;5.28;;;1.98;;
3070;SDS011;1546;47.208;9.038;2023-03-23T01:55:54;6.32;;;1.80;;
3070;SDS011;1546;47.208;9.038;2023-03-23T01:58:25;5.60;;;1.50;;
3070;SDS011;1546;47.208;9.038;2023-03-23T02:00:58;4.13;;;1.60;;
3070;SDS011;1546;47.208;9.038;2023-03-23T02:03:28;5.05;;;1.95;;
3070;SDS011;1546;47.208;9.038;2023-03-23T02:05:57;4.55;;;1.42;;
3070;SDS011;1546;47.208;9.038;2023-03-23T02:08:24;4.65;;;1.77;;
3070;SDS011;1546;47.208;9.038;2023-03-23T02:10:54;4.68;;;1.48;;
3070;SDS011;1546;47.208;9.038;2023-03-23T02:13:21;4.80;;;1.77;;
3070;SDS011;1546;47.208;9.038;2023-03-23T02:15:50;4.07;;;1.20;;
3070;SDS011;1546;47.208;9.038;2023-03-23T02:18:34;4.13;;;1.35;;
3070;SDS011;1546;47.208;9.038;2023-03-23T02:24:43;4.00;;;1.50;;
3070;SDS011;1546;47.208;9.038;2023-03-23T02:27:31;3.92;;;1.30;;
3070;SDS011;1546;47.208;9.038;2023-03-23T02:33:18;4.07;;;1.52;;
3070;SDS011;1546;47.208;9.038;2023-03-23T02:36:10;3.53;;;1.52;;
3070;SDS011;1546;47.208;9.038;2023-03-23T02:38:42;7.20;;;1.52;;
3070;SDS011;1546;47.208;9.038;2023-03-23T02:41:16;5.45;;;2.95;;
3070;SDS011;1546;47.208;9.038;2023-03-23T02:43:47;4.78;;;1.52;;
3070;SDS011;1546;47.208;9.038;2023-03-23T02:46:16;5.45;;;1.70;;
3070;SDS011;1546;47.208;9.038;2023-03-23T02:48:46;8.45;;;2.35;;
3070;SDS011;1546;47.208;9.038;2023-03-23T02:51:16;3.83;;;1.40;;
3070;SDS011;1546;47.208;9.038;2023-03-23T02:53:45;3.63;;;1.40;;
3070;SDS011;1546;47.208;9.038;2023-03-23T02:56:14;10.65;;;2.20;;
3070;SDS011;1546;47.208;9.038;2023-03-23T02:58:41;5.32;;;1.90;;
3070;SDS011;1546;47.208;9.038;2023-03-23T03:01:14;4.55;;;1.80;;
3070;SDS011;1546;47.208;9.038;2023-03-23T03:04:06;9.55;;;3.00;;
3070;SDS011;1546;47.208;9.038;2023-03-23T03:06:40;5.85;;;1.88;;
3070;SDS011;1546;47.208;9.038;2023-03-23T03:09:17;4.43;;;1.75;;
3070;SDS011;1546;47.208;9.038;2023-03-23T03:11:49;5.13;;;1.90;;
3070;SDS011;1546;47.208;9.038;2023-03-23T03:14:22;5.15;;;2.00;;
3070;SDS011;1546;47.208;9.038;2023-03-23T03:16:53;4.95;;;2.15;;
3070;SDS011;1546;47.208;9.038;2023-03-23T03:19:27;4.10;;;1.40;;
3070;SDS011;1546;47.208;9.038;2023-03-23T03:21:57;4.93;;;1.83;;
3070;SDS011;1546;47.208;9.038;2023-03-23T03:24:27;4.35;;;1.40;;
3070;SDS011;1546;47.208;9.038;2023-03-23T03:26:56;5.30;;;1.50;;
3070;SDS011;1546;47.208;9.038;2023-03-23T03:29:26;5.07;;;2.40;;
3070;SDS011;1546;47.208;9.038;2023-03-23T03:31:57;5.95;;;2.42;;
3070;SDS011;1546;47.208;9.038;2023-03-23T03:34:25;5.10;;;2.70;;
3070;SDS011;1546;47.208;9.038;2023-03-23T03:36:53;5.82;;;2.83;;
3070;SDS011;1546;47.208;9.038;2023-03-23T03:39:23;6.93;;;2.50;;
3070;SDS011;1546;47.208;9.038;2023-03-23T03:41:51;8.48;;;2.88;;
3070;SDS011;1546;47.208;9.038;2023-03-23T03:44:19;6.07;;;2.88;;
3070;SDS011;1546;47.208;9.038;2023-03-23T03:46:46;5.35;;;2.55;;
3070;SDS011;1546;47.208;9.038;2023-03-23T03:49:13;7.57;;;2.13;;
3070;SDS011;1546;47.208;9.038;2023-03-23T03:51:41;7.82;;;3.10;;
3070;SDS011;1546;47.208;9.038;2023-03-23T03:54:08;4.75;;;2.58;;
3070;SDS011;1546;47.208;9.038;2023-03-23T03:56:35;6.22;;;2.75;;
3070;SDS011;1546;47.208;9.038;2023-03-23T03:59:05;5.65;;;2.40;;
3070;SDS011;1546;47.208;9.038;2023-03-23T04:01:33;6.60;;;3.00;;
3070;SDS011;1546;47.208;9.038;2023-03-23T04:04:00;4.75;;;2.33;;
3070;SDS011;1546;47.208;9.038;2023-03-23T04:06:27;6.03;;;3.47;;
3070;SDS011;1546;47.208;9.038;2023-03-23T04:08:59;5.78;;;2.97;;
3070;SDS011;1546;47.208;9.038;2023-03-23T04:11:30;5.53;;;2.75;;
3070;SDS011;1546;47.208;9.038;2023-03-23T04:13:57;5.10;;;2.70;;
3070;SDS011;1546;47.208;9.038;2023-03-23T04:16:24;5.30;;;2.60;;
3070;SDS011;1546;47.208;9.038;2023-03-23T04:18:54;5.40;;;2.50;;
3070;SDS011;1546;47.208;9.038;2023-03-23T04:21:22;5.75;;;2.80;;
3070;SDS011;1546;47.208;9.038;2023-03-23T04:23:53;5.60;;;2.90;;
3070;SDS011;1546;47.208;9.038;2023-03-23T04:26:22;5.82;;;2.50;;
3070;SDS011;1546;47.208;9.038;2023-03-23T04:28:49;5.30;;;2.80;;
3070;SDS011;1546;47.208;9.038;2023-03-23T04:31:17;7.28;;;3.08;;
3070;SDS011;1546;47.208;9.038;2023-03-23T04:33:44;5.22;;;2.47;;
3070;SDS011;1546;47.208;9.038;2023-03-23T04:36:11;6.32;;;2.38;;
3070;SDS011;1546;47.208;9.038;2023-03-23T04:38:41;4.68;;;2.03;;
3070;SDS011;1546;47.208;9.038;2023-03-23T04:41:08;6.22;;;2.65;;
3070;SDS011;1546;47.208;9.038;2023-03-23T04:43:36;8.40;;;2.88;;
3070;SDS011;1546;47.208;9.038;2023-03-23T04:46:07;6.28;;;2.70;;
3070;SDS011;1546;47.208;9.038;2023-03-23T04:48:34;5.20;;;2.20;;
3070;SDS011;1546;47.208;9.038;2023-03-23T04:51:04;5.82;;;2.45;;
3070;SDS011;1546;47.208;9.038;2023-03-23T04:53:31;5.68;;;2.63;;
3070;SDS011;1546;47.208;9.038;2023-03-23T04:55:59;5.68;;;2.63;;
3070;SDS011;1546;47.208;9.038;2023-03-23T04:58:27;7.15;;;3.00;;
3070;SDS011;1546;47.208;9.038;2023-03-23T05:00:56;7.05;;;2.85;;
3070;SDS011;1546;47.208;9.038;2023-03-23T05:03:22;4.25;;;1.90;;
3070;SDS011;1546;47.208;9.038;2023-03-23T05:05:50;5.90;;;2.50;;
3070;SDS011;1546;47.208;9.038;2023-03-23T05:08:18;4.47;;;1.80;;
3070;SDS011;1546;47.208;9.038;2023-03-23T05:10:51;6.75;;;2.83;;
3070;SDS011;1546;47.208;9.038;2023-03-23T05:13:19;7.30;;;2.75;;
3070;SDS011;1546;47.208;9.038;2023-03-23T05:15:46;4.35;;;1.92;;
3070;SDS011;1546;47.208;9.038;2023-03-23T05:18:15;4.70;;;2.00;;
3070;SDS011;1546;47.208;9.038;2023-03-23T05:20:42;5.30;;;1.75;;
3070;SDS011;1546;47.208;9.038;2023-03-23T05:23:11;5.53;;;2.40;;
3070;SDS011;1546;47.208;9.038;2023-03-23T05:25:39;6.57;;;2.88;;
3070;SDS011;1546;47.208;9.038;2023-03-23T05:28:06;5.95;;;2.90;;
3070;SDS011;1546;47.208;9.038;2023-03-23T05:30:33;5.03;;;2.30;;
3070;SDS011;1546;47.208;9.038;2023-03-23T05:33:01;6.30;;;2.85;;
3070;SDS011;1546;47.208;9.038;2023-03-23T05:35:30;5.60;;;2.90;;
3070;SDS011;1546;47.208;9.038;2023-03-23T05:37:58;5.72;;;2.85;;
3070;SDS011;1546;47.208;9.038;2023-03-23T05:40:25;5.90;;;2.78;;
3070;SDS011;1546;47.208;9.038;2023-03-23T05:42:53;6.82;;;2.90;;
3070;SDS011;1546;47.208;9.038;2023-03-23T05:45:20;5.90;;;2.45;;
3070;SDS011;1546;47.208;9.038;2023-03-23T05:47:49;5.30;;;2.08;;
3070;SDS011;1546;47.208;9.038;2023-03-23T05:50:16;5.85;;;1.85;;
3070;SDS011;1546;47.208;9.038;2023-03-23T05:52:45;4.50;;;1.70;;
3070;SDS011;1546;47.208;9.038;2023-03-23T05:55:11;14.65;;;2.95;;
3070;SDS011;1546;47.208;9.038;2023-03-23T05:57:40;4.70;;;2.47;;
3070;SDS011;1546;47.208;9.038;2023-03-23T06:00:07;5.15;;;1.90;;
3070;SDS011;1546;47.208;9.038;2023-03-23T06:02:44;5.43;;;2.80;;
3070;SDS011;1546;47.208;9.038;2023-03-23T06:05:13;7.35;;;3.70;;
3070;SDS011;1546;47.208;9.038;2023-03-23T06:07:40;10.07;;;3.70;;
3070;SDS011;1546;47.208;9.038;2023-03-23T06:10:09;5.88;;;3.42;;
3070;SDS011;1546;47.208;9.038;2023-03-23T06:12:37;6.40;;;3.85;;
3070;SDS011;1546;47.208;9.038;2023-03-23T06:15:04;8.85;;;4.13;;
3070;SDS011;1546;47.208;9.038;2023-03-23T06:17:32;9.98;;;3.10;;
3070;SDS011;1546;47.208;9.038;2023-03-23T06:19:59;5.60;;;2.95;;
3070;SDS011;1546;47.208;9.038;2023-03-23T06:22:29;6.47;;;3.33;;
3070;SDS011;1546;47.208;9.038;2023-03-23T06:24:56;6.32;;;3.30;;
3070;SDS011;1546;47.208;9.038;2023-03-23T06:27:24;6.15;;;3.70;;
3070;SDS011;1546;47.208;9.038;2023-03-23T06:29:51;9.98;;;3.45;;
3070;SDS011;1546;47.208;9.038;2023-03-23T06:32:18;10.75;;;3.05;;
3070;SDS011;1546;47.208;9.038;2023-03-23T06:34:46;5.10;;;2.00;;
3070;SDS011;1546;47.208;9.038;2023-03-23T06:37:13;6.63;;;2.03;;
3070;SDS011;1546;47.208;9.038;2023-03-23T06:39:41;7.90;;;2.20;;
3070;SDS011;1546;47.208;9.038;2023-03-23T06:42:08;6.53;;;2.92;;
3070;SDS011;1546;47.208;9.038;2023-03-23T06:44:38;5.68;;;3.25;;
3070;SDS011;1546;47.208;9.038;2023-03-23T06:47:05;6.35;;;3.50;;
3070;SDS011;1546;47.208;9.038;2023-03-23T06:49:33;7.93;;;4.15;;
3070;SDS011;1546;47.208;9.038;2023-03-23T06:52:00;7.85;;;3.90;;
3070;SDS011;1546;47.208;9.038;2023-03-23T06:54:28;8.35;;;4.43;;
3070;SDS011;1546;47.208;9.038;2023-03-23T06:56:55;5.68;;;3.42;;
3070;SDS011;1546;47.208;9.038;2023-03-23T06:59:22;8.50;;;3.13;;
3070;SDS011;1546;47.208;9.038;2023-03-23T07:01:51;5.88;;;3.45;;
3070;SDS011;1546;47.208;9.038;2023-03-23T07:04:18;6.18;;;3.10;;
3070;SDS011;1546;47.208;9.038;2023-03-23T07:06:46;7.38;;;2.92;;
3070;SDS011;1546;47.208;9.038;2023-03-23T07:09:13;6.38;;;3.10;;
3070;SDS011;1546;47.208;9.038;2023-03-23T07:11:40;12.40;;;3.90;;
3070;SDS011;1546;47.208;9.038;2023-03-23T07:14:08;5.22;;;2.85;;
3070;SDS011;1546;47.208;9.038;2023-03-23T07:16:35;6.72;;;2.72;;
3070;SDS011;1546;47.208;9.038;2023-03-23T07:19:04;8.05;;;3.25;;
3070;SDS011;1546;47.208;9.038;2023-03-23T07:21:31;7.38;;;2.92;;
3070;SDS011;1546;47.208;9.038;2023-03-23T07:23:57;7.82;;;4.05;;
3070;SDS011;1546;47.208;9.038;2023-03-23T07:26:24;8.82;;;5.47;;
3070;SDS011;1546;47.208;9.038;2023-03-23T07:28:51;7.72;;;3.47;;
3070;SDS011;1546;47.208;9.038;2023-03-23T07:31:18;7.47;;;4.45;;
3070;SDS011;1546;47.208;9.038;2023-03-23T07:33:45;7.43;;;4.68;;
3070;SDS011;1546;47.208;9.038;2023-03-23T07:36:14;9.82;;;4.55;;
3070;SDS011;1546;47.208;9.038;2023-03-23T07:38:41;8.23;;;4.22;;
3070;SDS011;1546;47.208;9.038;2023-03-23T07:41:09;6.90;;;4.20;;
3070;SDS011;1546;47.208;9.038;2023-03-23T07:43:35;10.10;;;5.05;;
3070;SDS011;1546;47.208;9.038;2023-03-23T07:46:02;7.78;;;4.65;;
3070;SDS011;1546;47.208;9.038;2023-03-23T07:48:30;8.25;;;4.47;;
3070;SDS011;1546;47.208;9.038;2023-03-23T07:50:57;8.38;;;4.53;;
3070;SDS011;1546;47.208;9.038;2023-03-23T07:53:26;13.98;;;5.07;;
3070;SDS011;1546;47.208;9.038;2023-03-23T07:55:53;6.38;;;3.60;;
3070;SDS011;1546;47.208;9.038;2023-03-23T07:58:19;7.47;;;4.40;;
3070;SDS011;1546;47.208;9.038;2023-03-23T08:00:46;7.07;;;4.30;;
3070;SDS011;1546;47.208;9.038;2023-03-23T08:03:15;11.23;;;4.10;;
3070;SDS011;1546;47.208;9.038;2023-03-23T08:05:42;10.25;;;4.53;;
3070;SDS011;1546;47.208;9.038;2023-03-23T08:08:09;8.77;;;4.10;;
3070;SDS011;1546;47.208;9.038;2023-03-23T08:10:38;12.45;;;5.05;;
3070;SDS011;1546;47.208;9.038;2023-03-23T08:13:05;8.32;;;4.57;;
3070;SDS011;1546;47.208;9.038;2023-03-23T08:15:34;7.60;;;4.05;;
3070;SDS011;1546;47.208;9.038;2023-03-23T08:18:03;8.80;;;4.45;;
3070;SDS011;1546;47.208;9.038;2023-03-23T08:20:30;11.65;;;3.95;;
3070;SDS011;1546;47.208;9.038;2023-03-23T08:22:57;7.05;;;3.72;;
3070;SDS011;1546;47.208;9.038;2023-03-23T08:25:24;5.95;;;3.83;;
3070;SDS011;1546;47.208;9.038;2023-03-23T08:27:53;7.45;;;3.88;;
3070;SDS011;1546;47.208;9.038;2023-03-23T08:30:21;5.63;;;3.53;;
3070;SDS011;1546;47.208;9.038;2023-03-23T08:32:49;10.23;;;5.53;;
3070;SDS011;1546;47.208;9.038;2023-03-23T08:35:17;8.50;;;4.00;;
3070;SDS011;1546;47.208;9.038;2023-03-23T08:37:44;6.50;;;3.50;;
3070;SDS011;1546;47.208;9.038;2023-03-23T08:40:12;6.63;;;3.90;;
3070;SDS011;1546;47.208;9.038;2023-03-23T08:42:44;6.15;;;3.70;;
3070;SDS011;1546;47.208;9.038;2023-03-23T08:45:14;9.07;;;4.60;;
3070;SDS011;1546;47.208;9.038;2023-03-23T08:47:44;7.72;;;4.40;;
3070;SDS011;1546;47.208;9.038;2023-03-23T08:50:13;9.25;;;5.05;;
3070;SDS011;1546;47.208;9.038;2023-03-23T08:52:42;6.70;;;4.20;;
3070;SDS011;1546;47.208;9.038;2023-03-23T08:55:09;10.73;;;4.80;;
3070;SDS011;1546;47.208;9.038;2023-03-23T08:57:36;10.10;;;4.17;;
3070;SDS011;1546;47.208;9.038;2023-03-23T09:00:04;6.93;;;3.83;;
3070;SDS011;1546;47.208;9.038;2023-03-23T09:02:40;7.63;;;4.20;;
3070;SDS011;1546;47.208;9.038;2023-03-23T09:05:08;8.90;;;4.33;;
3070;SDS011;1546;47.208;9.038;2023-03-23T09:07:35;11.33;;;5.10;;
3070;SDS011;1546;47.208;9.038;2023-03-23T09:10:03;5.83;;;3.20;;
3070;SDS011;1546;47.208;9.038;2023-03-23T09:12:30;12.03;;;4.53;;
3070;SDS011;1546;47.208;9.038;2023-03-23T09:14:57;8.73;;;3.60;;
3070;SDS011;1546;47.208;9.038;2023-03-23T09:17:24;6.57;;;3.83;;
3070;SDS011;1546;47.208;9.038;2023-03-23T09:19:52;9.20;;;3.77;;
3070;SDS011;1546;47.208;9.038;2023-03-23T09:22:19;5.83;;;3.27;;
3070;SDS011;1546;47.208;9.038;2023-03-23T09:24:48;7.07;;;3.57;;
3070;SDS011;1546;47.208;9.038;2023-03-23T09:27:16;10.70;;;4.00;;
3070;SDS011;1546;47.208;9.038;2023-03-23T09:29:44;5.73;;;2.97;;
3070;SDS011;1546;47.208;9.038;2023-03-23T09:32:13;5.30;;;2.80;;
3070;SDS011;1546;47.208;9.038;2023-03-23T09:34:40;6.20;;;3.17;;
3070;SDS011;1546;47.208;9.038;2023-03-23T09:37:09;5.57;;;2.70;;
3070;SDS011;1546;47.208;9.038;2023-03-23T09:39:38;6.50;;;2.80;;
3070;SDS011;1546;47.208;9.038;2023-03-23T09:42:18;5.20;;;2.63;;
3070;SDS011;1546;47.208;9.038;2023-03-23T09:45:00;6.22;;;3.28;;
3070;SDS011;1546;47.208;9.038;2023-03-23T09:47:37;6.17;;;3.30;;
3070;SDS011;1546;47.208;9.038;2023-03-23T09:50:09;6.80;;;3.73;;
3070;SDS011;1546;47.208;9.038;2023-03-23T09:52:41;6.33;;;3.13;;
3070;SDS011;1546;47.208;9.038;2023-03-23T09:55:11;7.23;;;3.90;;
3070;SDS011;1546;47.208;9.038;2023-03-23T09:57:43;6.80;;;4.17;;
3070;SDS011;1546;47.208;9.038;2023-03-23T10:00:17;8.40;;;3.40;;
3070;SDS011;1546;47.208;9.038;2023-03-23T10:02:48;5.87;;;3.17;;
3070;SDS011;1546;47.208;9.038;2023-03-23T10:05:25;5.95;;;3.50;;
3070;SDS011;1546;47.208;9.038;2023-03-23T10:07:58;5.83;;;2.80;;
3070;SDS011;1546;47.208;9.038;2023-03-23T10:10:31;5.83;;;3.20;;
3070;SDS011;1546;47.208;9.038;2023-03-23T10:13:07;6.13;;;3.30;;
3070;SDS011;1546;47.208;9.038;2023-03-23T10:15:40;6.30;;;3.43;;
3070;SDS011;1546;47.208;9.038;2023-03-23T10:18:10;8.30;;;4.17;;
3070;SDS011;1546;47.208;9.038;2023-03-23T10:20:42;6.20;;;3.67;;
3070;SDS011;1546;47.208;9.038;2023-03-23T10:23:24;7.83;;;4.17;;
3070;SDS011;1546;47.208;9.038;2023-03-23T10:26:08;7.33;;;3.07;;
3070;SDS011;1546;47.208;9.038;2023-03-23T10:28:44;6.57;;;3.20;;
3070;SDS011;1546;47.208;9.038;2023-03-23T10:31:15;7.43;;;3.60;;
3070;SDS011;1546;47.208;9.038;2023-03-23T10:33:45;11.10;;;4.30;;
3070;SDS011;1546;47.208;9.038;2023-03-23T10:36:16;6.43;;;3.30;;
3070;SDS011;1546;47.208;9.038;2023-03-23T10:38:53;6.17;;;2.73;;
3070;SDS011;1546;47.208;9.038;2023-03-23T10:41:26;6.50;;;3.47;;
3070;SDS011;1546;47.208;9.038;2023-03-23T10:43:53;5.20;;;3.17;;
3070;SDS011;1546;47.208;9.038;2023-03-23T10:46:22;5.70;;;3.50;;
3070;SDS011;1546;47.208;9.038;2023-03-23T10:48:55;5.97;;;2.23;;
3070;SDS011;1546;47.208;9.038;2023-03-23T10:51:26;6.27;;;3.03;;
3070;SDS011;1546;47.208;9.038;2023-03-23T10:54:00;6.97;;;3.30;;
3070;SDS011;1546;47.208;9.038;2023-03-23T10:56:36;5.27;;;2.40;;
3070;SDS011;1546;47.208;9.038;2023-03-23T10:59:13;5.53;;;2.10;;
3070;SDS011;1546;47.208;9.038;2023-03-23T11:01:45;5.30;;;1.90;;
3070;SDS011;1546;47.208;9.038;2023-03-23T11:04:15;4.30;;;2.13;;
3070;SDS011;1546;47.208;9.038;2023-03-23T11:06:44;3.90;;;1.73;;
3070;SDS011;1546;47.208;9.038;2023-03-23T11:09:15;4.20;;;1.73;;
3070;SDS011;1546;47.208;9.038;2023-03-23T11:11:47;5.70;;;2.10;;
3070;SDS011;1546;47.208;9.038;2023-03-23T11:14:17;4.77;;;2.00;;
3070;SDS011;1546;47.208;9.038;2023-03-23T11:16:45;4.53;;;1.93;;
3070;SDS011;1546;47.208;9.038;2023-03-23T11:19:21;5.53;;;1.63;;
3070;SDS011;1546;47.208;9.038;2023-03-23T11:21:50;5.57;;;1.90;;
3070;SDS011;1546;47.208;9.038;2023-03-23T11:24:20;4.67;;;1.83;;
3070;SDS011;1546;47.208;9.038;2023-03-23T11:26:48;4.10;;;1.57;;
3070;SDS011;1546;47.208;9.038;2023-03-23T11:29:16;3.90;;;1.63;;
3070;SDS011;1546;47.208;9.038;2023-03-23T11:31:46;5.83;;;1.90;;
3070;SDS011;1546;47.208;9.038;2023-03-23T11:34:16;4.83;;;1.70;;
3070;SDS011;1546;47.208;9.038;2023-03-23T11:36:47;5.37;;;1.63;;
3070;SDS011;1546;47.208;9.038;2023-03-23T11:39:20;6.20;;;2.10;;
3070;SDS011;1546;47.208;9.038;2023-03-23T11:41:49;4.40;;;1.87;;
3070;SDS011;1546;47.208;9.038;2023-03-23T11:44:16;3.73;;;1.40;;
3070;SDS011;1546;47.208;9.038;2023-03-23T11:46:52;4.33;;;1.87;;
3070;SDS011;1546;47.208;9.038;2023-03-23T11:49:29;9.43;;;1.87;;
3070;SDS011;1546;47.208;9.038;2023-03-23T11:52:05;3.90;;;1.30;;
3070;SDS011;1546;47.208;9.038;2023-03-23T11:54:42;7.70;;;1.73;;
3070;SDS011;1546;47.208;9.038;2023-03-23T11:57:12;4.87;;;2.10;;
3070;SDS011;1546;47.208;9.038;2023-03-23T11:59:41;4.40;;;1.70;;
3070;SDS011;1546;47.208;9.038;2023-03-23T12:08:03;4.50;;;2.30;;
3070;SDS011;1546;47.208;9.038;2023-03-23T12:10:42;4.50;;;2.10;;
3070;SDS011;1546;47.208;9.038;2023-03-23T12:13:20;5.43;;;1.90;;
3070;SDS011;1546;47.208;9.038;2023-03-23T12:16:00;5.07;;;2.33;;
3070;SDS011;1546;47.208;9.038;2023-03-23T12:18:38;5.00;;;2.30;;
3070;SDS011;1546;47.208;9.038;2023-03-23T12:21:17;5.17;;;2.27;;
3070;SDS011;1546;47.208;9.038;2023-03-23T12:23:58;5.43;;;2.00;;
3070;SDS011;1546;47.208;9.038;2023-03-23T12:26:31;5.27;;;1.67;;
3070;SDS011;1546;47.208;9.038;2023-03-23T12:29:10;5.30;;;2.23;;
3070;SDS011;1546;47.208;9.038;2023-03-23T12:31:48;5.17;;;2.23;;
3070;SDS011;1546;47.208;9.038;2023-03-23T12:34:24;4.70;;;2.40;;
3070;SDS011;1546;47.208;9.038;2023-03-23T12:37:07;4.60;;;2.00;;
3070;SDS011;1546;47.208;9.038;2023-03-23T12:42:37;4.03;;;1.60;;
3070;SDS011;1546;47.208;9.038;2023-03-23T12:45:16;5.03;;;1.97;;
3070;SDS011;1546;47.208;9.038;2023-03-23T12:47:50;4.93;;;2.30;;
3070;SDS011;1546;47.208;9.038;2023-03-23T12:50:22;5.53;;;2.17;;
3070;SDS011;1546;47.208;9.038;2023-03-23T12:52:55;6.60;;;2.60;;
3070;SDS011;1546;47.208;9.038;2023-03-23T12:55:27;4.50;;;1.67;;
3070;SDS011;1546;47.208;9.038;2023-03-23T12:58:02;5.80;;;2.23;;
3070;SDS011;1546;47.208;9.038;2023-03-23T13:00:33;5.43;;;1.90;;
3070;SDS011;1546;47.208;9.038;2023-03-23T13:03:17;5.50;;;1.83;;
3070;SDS011;1546;47.208;9.038;2023-03-23T13:05:47;7.20;;;1.93;;
3070;SDS011;1546;47.208;9.038;2023-03-23T13:08:21;6.90;;;2.40;;
3070;SDS011;1546;47.208;9.038;2023-03-23T13:10:53;4.10;;;1.60;;
3070;SDS011;1546;47.208;9.038;2023-03-23T13:13:24;5.53;;;1.60;;
3070;SDS011;1546;47.208;9.038;2023-03-23T13:15:56;4.93;;;2.10;;
3070;SDS011;1546;47.208;9.038;2023-03-23T13:18:31;5.83;;;2.00;;
3070;SDS011;1546;47.208;9.038;2023-03-23T13:21:09;3.90;;;1.60;;
3070;SDS011;1546;47.208;9.038;2023-03-23T13:23:42;5.40;;;2.50;;
3070;SDS011;1546;47.208;9.038;2023-03-23T13:26:11;3.80;;;1.77;;
3070;SDS011;1546;47.208;9.038;2023-03-23T13:28:55;4.60;;;1.77;;
3070;SDS011;1546;47.208;9.038;2023-03-23T13:31:24;4.73;;;1.83;;
3070;SDS011;1546;47.208;9.038;2023-03-23T13:33:58;4.57;;;2.33;;
3070;SDS011;1546;47.208;9.038;2023-03-23T13:36:29;6.17;;;2.00;;
3070;SDS011;1546;47.208;9.038;2023-03-23T13:38:58;4.20;;;1.70;;
3070;SDS011;1546;47.208;9.038;2023-03-23T13:41:27;4.30;;;1.80;;
3070;SDS011;1546;47.208;9.038;2023-03-23T13:44:05;4.50;;;1.73;;
3070;SDS011;1546;47.208;9.038;2023-03-23T13:46:53;5.17;;;2.03;;
3070;SDS011;1546;47.208;9.038;2023-03-23T13:49:22;5.00;;;1.80;;
3070;SDS011;1546;47.208;9.038;2023-03-23T13:52:01;6.43;;;2.20;;
3070;SDS011;1546;47.208;9.038;2023-03-23T13:54:42;4.80;;;2.20;;
3070;SDS011;1546;47.208;9.038;2023-03-23T13:57:21;4.37;;;1.73;;
3070;SDS011;1546;47.208;9.038;2023-03-23T14:00:09;4.40;;;2.00;;
3070;SDS011;1546;47.208;9.038;2023-03-23T14:02:40;6.40;;;2.17;;
3070;SDS011;1546;47.208;9.038;2023-03-23T14:05:25;4.13;;;1.80;;
3070;SDS011;1546;47.208;9.038;2023-03-23T14:07:57;7.93;;;2.10;;
3070;SDS011;1546;47.208;9.038;2023-03-23T14:10:31;4.57;;;1.87;;
3070;SDS011;1546;47.208;9.038;2023-03-23T14:13:00;4.47;;;2.07;;
3070;SDS011;1546;47.208;9.038;2023-03-23T14:15:30;4.77;;;2.00;;
3070;SDS011;1546;47.208;9.038;2023-03-23T14:18:04;7.80;;;2.87;;
3070;SDS011;1546;47.208;9.038;2023-03-23T14:20:31;5.53;;;2.77;;
3070;SDS011;1546;47.208;9.038;2023-03-23T14:23:00;5.07;;;2.10;;
3070;SDS011;1546;47.208;9.038;2023-03-23T14:25:29;4.30;;;1.90;;
3070;SDS011;1546;47.208;9.038;2023-03-23T14:27:57;7.17;;;2.43;;
3070;SDS011;1546;47.208;9.038;2023-03-23T14:30:25;7.53;;;2.60;;
3070;SDS011;1546;47.208;9.038;2023-03-23T14:33:02;5.10;;;2.33;;
3070;SDS011;1546;47.208;9.038;2023-03-23T14:35:32;4.40;;;2.00;;
3070;SDS011;1546;47.208;9.038;2023-03-23T14:38:00;3.83;;;1.80;;
3070;SDS011;1546;47.208;9.038;2023-03-23T14:40:28;4.73;;;2.10;;
3070;SDS011;1546;47.208;9.038;2023-03-23T14:42:56;6.40;;;2.30;;
3070;SDS011;1546;47.208;9.038;2023-03-23T14:45:25;6.70;;;2.27;;
3070;SDS011;1546;47.208;9.038;2023-03-23T14:47:53;4.93;;;2.57;;
3070;SDS011;1546;47.208;9.038;2023-03-23T14:50:24;6.67;;;3.03;;
3070;SDS011;1546;47.208;9.038;2023-03-23T14:52:55;5.27;;;2.40;;
3070;SDS011;1546;47.208;9.038;2023-03-23T14:55:24;5.53;;;2.00;;
3070;SDS011;1546;47.208;9.038;2023-03-23T14:57:53;5.80;;;2.50;;
3070;SDS011;1546;47.208;9.038;2023-03-23T15:00:21;4.30;;;1.97;;
3070;SDS011;1546;47.208;9.038;2023-03-23T15:02:51;5.50;;;2.27;;
3070;SDS011;1546;47.208;9.038;2023-03-23T15:05:25;5.17;;;2.13;;
3070;SDS011;1546;47.208;9.038;2023-03-23T15:07:56;7.30;;;2.90;;
3070;SDS011;1546;47.208;9.038;2023-03-23T15:10:26;7.10;;;2.80;;
3070;SDS011;1546;47.208;9.038;2023-03-23T15:12:53;10.30;;;2.77;;
3070;SDS011;1546;47.208;9.038;2023-03-23T15:15:24;4.60;;;2.50;;
3070;SDS011;1546;47.208;9.038;2023-03-23T15:17:53;6.00;;;2.70;;
3070;SDS011;1546;47.208;9.038;2023-03-23T15:20:23;6.30;;;2.67;;
3070;SDS011;1546;47.208;9.038;2023-03-23T15:22:52;5.80;;;2.40;;
3070;SDS011;1546;47.208;9.038;2023-03-23T15:25:20;5.53;;;2.60;;
3070;SDS011;1546;47.208;9.038;2023-03-23T15:27:52;6.20;;;2.73;;
3070;SDS011;1546;47.208;9.038;2023-03-23T15:30:28;6.67;;;2.60;;
3070;SDS011;1546;47.208;9.038;2023-03-23T15:33:01;4.67;;;2.20;;
3070;SDS011;1546;47.208;9.038;2023-03-23T15:35:34;6.30;;;2.73;;
3070;SDS011;1546;47.208;9.038;2023-03-23T15:38:03;6.00;;;2.70;;
3070;SDS011;1546;47.208;9.038;2023-03-23T15:40:32;5.93;;;2.70;;
3070;SDS011;1546;47.208;9.038;2023-03-23T15:43:14;9.03;;;2.43;;
3070;SDS011;1546;47.208;9.038;2023-03-23T15:45:55;4.77;;;2.47;;
3070;SDS011;1546;47.208;9.038;2023-03-23T15:48:25;5.97;;;2.70;;
3070;SDS011;1546;47.208;9.038;2023-03-23T15:50:54;4.80;;;2.40;;